sensor_id;sensor_type;location;lat;lon;timestamp;P1;durP1;ratioP1;P2;durP2;ratioP2
5585;SDS011;2815;54.094;12.112;2022-08-07T00:00:23;4.53;;;1.60;;
5585;SDS011;2815;54.094;12.112;2022-08-07T00:02:51;5.35;;;1.80;;
5585;SDS011;2815;54.094;12.112;2022-08-07T00:05:23;4.60;;;1.40;;
5585;SDS011;2815;54.094;12.112;2022-08-07T00:07:52;5.28;;;1.90;;
5585;SDS011;2815;54.094;12.112;2022-08-07T00:10:25;3.83;;;1.60;;
5585;SDS011;2815;54.094;12.112;2022-08-07T00:12:56;3.63;;;1.55;;
5585;SDS011;2815;54.094;12.112;2022-08-07T00:15:29;5.75;;;1.55;;
5585;SDS011;2815;54.094;12.112;2022-08-07T00:18:04;9.20;;;1.92;;
5585;SDS011;2815;54.094;12.112;2022-08-07T00:20:46;7.43;;;1.58;;
5585;SDS011;2815;54.094;12.112;2022-08-07T00:23:16;5.53;;;1.65;;
5585;SDS011;2815;54.094;12.112;2022-08-07T00:25:47;3.67;;;1.70;;
5585;SDS011;2815;54.094;12.112;2022-08-07T00:28:26;3.38;;;1.65;;
5585;SDS011;2815;54.094;12.112;2022-08-07T00:30:58;4.25;;;1.83;;
5585;SDS011;2815;54.094;12.112;2022-08-07T00:33:31;3.67;;;1.33;;
5585;SDS011;2815;54.094;12.112;2022-08-07T00:36:02;5.40;;;1.70;;
5585;SDS011;2815;54.094;12.112;2022-08-07T00:38:31;7.70;;;1.90;;
5585;SDS011;2815;54.094;12.112;2022-08-07T00:41:02;5.10;;;2.05;;
5585;SDS011;2815;54.094;12.112;2022-08-07T00:43:36;4.35;;;1.95;;
5585;SDS011;2815;54.094;12.112;2022-08-07T00:46:24;3.90;;;1.92;;
5585;SDS011;2815;54.094;12.112;2022-08-07T00:48:52;5.20;;;2.05;;
5585;SDS011;2815;54.094;12.112;2022-08-07T00:51:22;3.53;;;2.05;;
5585;SDS011;2815;54.094;12.112;2022-08-07T00:54:10;6.22;;;2.08;;
5585;SDS011;2815;54.094;12.112;2022-08-07T00:56:45;5.50;;;3.08;;
5585;SDS011;2815;54.094;12.112;2022-08-07T00:59:15;5.18;;;2.38;;
5585;SDS011;2815;54.094;12.112;2022-08-07T01:01:58;4.93;;;2.15;;
5585;SDS011;2815;54.094;12.112;2022-08-07T01:04:29;5.40;;;2.45;;
5585;SDS011;2815;54.094;12.112;2022-08-07T01:06:59;7.53;;;2.60;;
5585;SDS011;2815;54.094;12.112;2022-08-07T01:09:28;5.70;;;2.67;;
5585;SDS011;2815;54.094;12.112;2022-08-07T01:12:16;6.10;;;2.83;;
5585;SDS011;2815;54.094;12.112;2022-08-07T01:14:56;8.63;;;2.97;;
5585;SDS011;2815;54.094;12.112;2022-08-07T01:17:27;7.82;;;2.67;;
5585;SDS011;2815;54.094;12.112;2022-08-07T01:19:57;8.05;;;2.83;;
5585;SDS011;2815;54.094;12.112;2022-08-07T01:22:33;5.85;;;2.58;;
5585;SDS011;2815;54.094;12.112;2022-08-07T01:25:01;7.82;;;2.83;;
5585;SDS011;2815;54.094;12.112;2022-08-07T01:27:50;5.07;;;3.00;;
5585;SDS011;2815;54.094;12.112;2022-08-07T01:30:20;7.10;;;2.72;;
5585;SDS011;2815;54.094;12.112;2022-08-07T01:32:55;4.82;;;2.70;;
5585;SDS011;2815;54.094;12.112;2022-08-07T01:35:26;5.80;;;3.15;;
5585;SDS011;2815;54.094;12.112;2022-08-07T01:38:15;6.03;;;2.70;;
5585;SDS011;2815;54.094;12.112;2022-08-07T01:40:54;4.82;;;2.90;;
5585;SDS011;2815;54.094;12.112;2022-08-07T01:43:25;6.38;;;2.50;;
5585;SDS011;2815;54.094;12.112;2022-08-07T01:46:05;6.05;;;2.40;;
5585;SDS011;2815;54.094;12.112;2022-08-07T01:48:40;8.85;;;2.70;;
5585;SDS011;2815;54.094;12.112;2022-08-07T01:51:18;6.20;;;2.85;;
5585;SDS011;2815;54.094;12.112;2022-08-07T01:54:10;14.55;;;2.65;;
5585;SDS011;2815;54.094;12.112;2022-08-07T01:57:02;3.78;;;2.40;;
5585;SDS011;2815;54.094;12.112;2022-08-07T01:59:35;8.75;;;2.50;;
5585;SDS011;2815;54.094;12.112;2022-08-07T02:02:11;6.63;;;2.95;;
5585;SDS011;2815;54.094;12.112;2022-08-07T02:05:03;6.35;;;2.33;;
5585;SDS011;2815;54.094;12.112;2022-08-07T02:07:43;7.05;;;2.38;;
5585;SDS011;2815;54.094;12.112;2022-08-07T02:10:29;5.47;;;2.47;;
5585;SDS011;2815;54.094;12.112;2022-08-07T02:13:00;5.50;;;2.67;;
5585;SDS011;2815;54.094;12.112;2022-08-07T02:15:39;6.72;;;2.72;;
5585;SDS011;2815;54.094;12.112;2022-08-07T02:18:08;7.72;;;2.83;;
5585;SDS011;2815;54.094;12.112;2022-08-07T02:20:37;6.40;;;2.83;;
5585;SDS011;2815;54.094;12.112;2022-08-07T02:23:07;6.60;;;2.90;;
5585;SDS011;2815;54.094;12.112;2022-08-07T02:25:39;7.82;;;2.65;;
5585;SDS011;2815;54.094;12.112;2022-08-07T02:28:28;6.63;;;3.15;;
5585;SDS011;2815;54.094;12.112;2022-08-07T02:31:02;7.15;;;2.85;;
5585;SDS011;2815;54.094;12.112;2022-08-07T02:33:52;5.30;;;2.70;;
5585;SDS011;2815;54.094;12.112;2022-08-07T02:36:34;6.43;;;2.90;;
5585;SDS011;2815;54.094;12.112;2022-08-07T02:39:09;5.85;;;2.88;;
5585;SDS011;2815;54.094;12.112;2022-08-07T02:41:59;12.93;;;3.10;;
5585;SDS011;2815;54.094;12.112;2022-08-07T02:44:28;5.18;;;2.83;;
5585;SDS011;2815;54.094;12.112;2022-08-07T02:47:03;6.93;;;3.05;;
5585;SDS011;2815;54.094;12.112;2022-08-07T02:49:33;8.55;;;2.90;;
5585;SDS011;2815;54.094;12.112;2022-08-07T02:52:23;5.43;;;2.80;;
5585;SDS011;2815;54.094;12.112;2022-08-07T02:54:58;7.25;;;3.03;;
5585;SDS011;2815;54.094;12.112;2022-08-07T02:57:31;6.90;;;2.95;;
5585;SDS011;2815;54.094;12.112;2022-08-07T03:00:03;6.90;;;2.90;;
5585;SDS011;2815;54.094;12.112;2022-08-07T03:02:38;6.95;;;3.25;;
5585;SDS011;2815;54.094;12.112;2022-08-07T03:05:20;5.53;;;3.20;;
5585;SDS011;2815;54.094;12.112;2022-08-07T03:07:51;6.93;;;2.60;;
5585;SDS011;2815;54.094;12.112;2022-08-07T03:10:38;6.93;;;2.65;;
5585;SDS011;2815;54.094;12.112;2022-08-07T03:13:17;5.78;;;2.90;;
5585;SDS011;2815;54.094;12.112;2022-08-07T03:15:48;7.70;;;2.85;;
5585;SDS011;2815;54.094;12.112;2022-08-07T03:18:25;5.40;;;2.70;;
5585;SDS011;2815;54.094;12.112;2022-08-07T03:21:03;6.18;;;3.03;;
5585;SDS011;2815;54.094;12.112;2022-08-07T03:23:37;6.55;;;3.33;;
5585;SDS011;2815;54.094;12.112;2022-08-07T03:26:27;6.32;;;2.85;;
5585;SDS011;2815;54.094;12.112;2022-08-07T03:29:02;6.63;;;3.10;;
5585;SDS011;2815;54.094;12.112;2022-08-07T03:31:38;5.22;;;3.20;;
5585;SDS011;2815;54.094;12.112;2022-08-07T03:34:15;8.32;;;3.33;;
5585;SDS011;2815;54.094;12.112;2022-08-07T03:36:54;7.50;;;2.95;;
5585;SDS011;2815;54.094;12.112;2022-08-07T03:39:24;5.07;;;3.03;;
5585;SDS011;2815;54.094;12.112;2022-08-07T03:42:13;7.60;;;2.80;;
5585;SDS011;2815;54.094;12.112;2022-08-07T03:44:43;5.15;;;2.83;;
5585;SDS011;2815;54.094;12.112;2022-08-07T03:47:18;4.35;;;2.83;;
5585;SDS011;2815;54.094;12.112;2022-08-07T03:49:48;10.63;;;3.25;;
5585;SDS011;2815;54.094;12.112;2022-08-07T03:52:21;7.43;;;3.10;;
5585;SDS011;2815;54.094;12.112;2022-08-07T03:54:55;6.35;;;3.10;;
5585;SDS011;2815;54.094;12.112;2022-08-07T03:57:35;9.20;;;3.17;;
5585;SDS011;2815;54.094;12.112;2022-08-07T04:00:28;6.18;;;2.67;;
5585;SDS011;2815;54.094;12.112;2022-08-07T04:02:59;5.22;;;2.78;;
5585;SDS011;2815;54.094;12.112;2022-08-07T04:05:33;10.05;;;3.42;;
5585;SDS011;2815;54.094;12.112;2022-08-07T04:08:14;6.72;;;3.03;;
5585;SDS011;2815;54.094;12.112;2022-08-07T04:10:47;8.30;;;3.30;;
5585;SDS011;2815;54.094;12.112;2022-08-07T04:13:37;6.57;;;2.92;;
5585;SDS011;2815;54.094;12.112;2022-08-07T04:16:28;9.10;;;3.15;;
5585;SDS011;2815;54.094;12.112;2022-08-07T04:19:01;7.75;;;3.90;;
5585;SDS011;2815;54.094;12.112;2022-08-07T04:21:43;5.28;;;3.03;;
5585;SDS011;2815;54.094;12.112;2022-08-07T04:24:34;5.35;;;3.17;;
5585;SDS011;2815;54.094;12.112;2022-08-07T04:27:09;6.85;;;3.00;;
5585;SDS011;2815;54.094;12.112;2022-08-07T04:29:50;8.07;;;3.28;;
5585;SDS011;2815;54.094;12.112;2022-08-07T04:32:47;7.07;;;3.13;;
5585;SDS011;2815;54.094;12.112;2022-08-07T04:35:25;8.35;;;3.58;;
5585;SDS011;2815;54.094;12.112;2022-08-07T04:38:04;9.68;;;3.35;;
5585;SDS011;2815;54.094;12.112;2022-08-07T04:40:37;5.20;;;3.05;;
5585;SDS011;2815;54.094;12.112;2022-08-07T04:43:27;7.47;;;3.10;;
5585;SDS011;2815;54.094;12.112;2022-08-07T04:46:19;7.30;;;3.15;;
5585;SDS011;2815;54.094;12.112;2022-08-07T04:49:04;6.03;;;2.83;;
5585;SDS011;2815;54.094;12.112;2022-08-07T04:51:51;6.25;;;3.08;;
5585;SDS011;2815;54.094;12.112;2022-08-07T04:54:24;4.93;;;2.65;;
5585;SDS011;2815;54.094;12.112;2022-08-07T04:57:01;8.75;;;2.90;;
5585;SDS011;2815;54.094;12.112;2022-08-07T05:02:43;4.90;;;2.70;;
5585;SDS011;2815;54.094;12.112;2022-08-07T05:05:19;4.50;;;2.60;;
5585;SDS011;2815;54.094;12.112;2022-08-07T05:10:40;7.07;;;3.38;;
5585;SDS011;2815;54.094;12.112;2022-08-07T05:13:14;4.60;;;2.95;;
5585;SDS011;2815;54.094;12.112;2022-08-07T05:16:04;9.35;;;2.85;;
5585;SDS011;2815;54.094;12.112;2022-08-07T05:18:34;6.70;;;3.08;;
5585;SDS011;2815;54.094;12.112;2022-08-07T05:21:07;6.43;;;3.03;;
5585;SDS011;2815;54.094;12.112;2022-08-07T05:23:39;5.15;;;2.95;;
5585;SDS011;2815;54.094;12.112;2022-08-07T05:26:12;6.10;;;3.00;;
5585;SDS011;2815;54.094;12.112;2022-08-07T05:28:52;6.28;;;3.03;;
5585;SDS011;2815;54.094;12.112;2022-08-07T05:31:26;3.33;;;2.40;;
5585;SDS011;2815;54.094;12.112;2022-08-07T05:34:02;7.32;;;3.05;;
5585;SDS011;2815;54.094;12.112;2022-08-07T05:36:41;5.53;;;2.65;;
5585;SDS011;2815;54.094;12.112;2022-08-07T05:39:34;6.72;;;2.95;;
5585;SDS011;2815;54.094;12.112;2022-08-07T05:42:23;6.38;;;2.90;;
5585;SDS011;2815;54.094;12.112;2022-08-07T05:45:03;5.22;;;2.78;;
5585;SDS011;2815;54.094;12.112;2022-08-07T05:47:54;6.57;;;2.90;;
5585;SDS011;2815;54.094;12.112;2022-08-07T05:50:32;4.65;;;2.65;;
5585;SDS011;2815;54.094;12.112;2022-08-07T05:53:06;5.43;;;2.70;;
5585;SDS011;2815;54.094;12.112;2022-08-07T05:55:56;7.63;;;3.35;;
5585;SDS011;2815;54.094;12.112;2022-08-07T05:58:33;6.55;;;2.90;;
5585;SDS011;2815;54.094;12.112;2022-08-07T06:01:08;4.60;;;2.42;;
5585;SDS011;2815;54.094;12.112;2022-08-07T06:03:42;4.50;;;2.30;;
5585;SDS011;2815;54.094;12.112;2022-08-07T06:06:22;6.50;;;2.50;;
5585;SDS011;2815;54.094;12.112;2022-08-07T06:09:01;6.20;;;2.50;;
5585;SDS011;2815;54.094;12.112;2022-08-07T06:11:34;6.90;;;2.28;;
5585;SDS011;2815;54.094;12.112;2022-08-07T06:14:03;5.90;;;2.45;;
5585;SDS011;2815;54.094;12.112;2022-08-07T06:16:46;6.30;;;2.58;;
5585;SDS011;2815;54.094;12.112;2022-08-07T06:19:23;4.40;;;2.17;;
5585;SDS011;2815;54.094;12.112;2022-08-07T06:22:11;4.72;;;1.90;;
5585;SDS011;2815;54.094;12.112;2022-08-07T06:25:13;4.15;;;1.58;;
5585;SDS011;2815;54.094;12.112;2022-08-07T06:27:41;2.95;;;1.67;;
5585;SDS011;2815;54.094;12.112;2022-08-07T06:30:27;4.93;;;2.20;;
5585;SDS011;2815;54.094;12.112;2022-08-07T06:33:12;3.88;;;1.45;;
5585;SDS011;2815;54.094;12.112;2022-08-07T06:35:44;3.90;;;1.33;;
5585;SDS011;2815;54.094;12.112;2022-08-07T06:38:35;2.83;;;1.58;;
5585;SDS011;2815;54.094;12.112;2022-08-07T06:41:06;4.35;;;1.60;;
5585;SDS011;2815;54.094;12.112;2022-08-07T06:43:40;4.53;;;1.63;;
5585;SDS011;2815;54.094;12.112;2022-08-07T06:46:17;4.18;;;1.60;;
5585;SDS011;2815;54.094;12.112;2022-08-07T06:49:00;3.83;;;1.52;;
5585;SDS011;2815;54.094;12.112;2022-08-07T06:51:32;4.13;;;1.40;;
5585;SDS011;2815;54.094;12.112;2022-08-07T06:54:16;5.13;;;1.40;;
5585;SDS011;2815;54.094;12.112;2022-08-07T06:57:07;3.22;;;1.38;;
5585;SDS011;2815;54.094;12.112;2022-08-07T06:59:39;4.68;;;1.48;;
5585;SDS011;2815;54.094;12.112;2022-08-07T07:02:28;4.00;;;1.70;;
5585;SDS011;2815;54.094;12.112;2022-08-07T07:05:18;2.95;;;1.40;;
5585;SDS011;2815;54.094;12.112;2022-08-07T07:08:07;5.13;;;1.50;;
5585;SDS011;2815;54.094;12.112;2022-08-07T07:10:51;3.70;;;1.60;;
5585;SDS011;2815;54.094;12.112;2022-08-07T07:13:27;4.32;;;2.00;;
5585;SDS011;2815;54.094;12.112;2022-08-07T07:16:19;5.45;;;1.60;;
5585;SDS011;2815;54.094;12.112;2022-08-07T07:18:54;4.05;;;1.52;;
5585;SDS011;2815;54.094;12.112;2022-08-07T07:21:25;4.68;;;1.38;;
5585;SDS011;2815;54.094;12.112;2022-08-07T07:24:14;3.58;;;1.55;;
5585;SDS011;2815;54.094;12.112;2022-08-07T07:26:43;2.80;;;1.40;;
5585;SDS011;2815;54.094;12.112;2022-08-07T07:29:19;3.30;;;1.23;;
5585;SDS011;2815;54.094;12.112;2022-08-07T07:32:10;2.25;;;1.40;;
5585;SDS011;2815;54.094;12.112;2022-08-07T07:34:41;4.97;;;1.50;;
5585;SDS011;2815;54.094;12.112;2022-08-07T07:37:14;4.72;;;1.50;;
5585;SDS011;2815;54.094;12.112;2022-08-07T07:40:04;4.30;;;1.33;;
5585;SDS011;2815;54.094;12.112;2022-08-07T07:42:40;1.77;;;1.30;;
5585;SDS011;2815;54.094;12.112;2022-08-07T07:45:18;3.38;;;1.67;;
5585;SDS011;2815;54.094;12.112;2022-08-07T07:48:08;3.03;;;1.60;;
5585;SDS011;2815;54.094;12.112;2022-08-07T07:50:49;2.97;;;1.63;;
5585;SDS011;2815;54.094;12.112;2022-08-07T07:53:19;2.55;;;1.60;;
5585;SDS011;2815;54.094;12.112;2022-08-07T07:55:51;3.33;;;1.70;;
5585;SDS011;2815;54.094;12.112;2022-08-07T07:58:27;3.50;;;1.95;;
5585;SDS011;2815;54.094;12.112;2022-08-07T08:01:07;3.65;;;2.03;;
5585;SDS011;2815;54.094;12.112;2022-08-07T08:03:57;3.03;;;1.55;;
5585;SDS011;2815;54.094;12.112;2022-08-07T08:06:36;5.30;;;2.00;;
5585;SDS011;2815;54.094;12.112;2022-08-07T08:09:18;3.20;;;1.80;;
5585;SDS011;2815;54.094;12.112;2022-08-07T08:11:48;5.55;;;1.95;;
5585;SDS011;2815;54.094;12.112;2022-08-07T08:14:29;3.08;;;1.73;;
5585;SDS011;2815;54.094;12.112;2022-08-07T08:17:01;6.07;;;1.85;;
5585;SDS011;2815;54.094;12.112;2022-08-07T08:19:50;5.68;;;1.90;;
5585;SDS011;2815;54.094;12.112;2022-08-07T08:22:40;3.28;;;1.40;;
5585;SDS011;2815;54.094;12.112;2022-08-07T08:25:27;3.67;;;1.90;;
5585;SDS011;2815;54.094;12.112;2022-08-07T08:28:16;2.80;;;1.65;;
5585;SDS011;2815;54.094;12.112;2022-08-07T08:31:02;6.40;;;1.98;;
5585;SDS011;2815;54.094;12.112;2022-08-07T08:33:33;3.75;;;1.80;;
5585;SDS011;2815;54.094;12.112;2022-08-07T08:36:04;3.70;;;2.10;;
5585;SDS011;2815;54.094;12.112;2022-08-07T08:38:34;3.60;;;1.85;;
5585;SDS011;2815;54.094;12.112;2022-08-07T08:43:40;5.15;;;2.22;;
5585;SDS011;2815;54.094;12.112;2022-08-07T08:46:27;3.63;;;2.10;;
5585;SDS011;2815;54.094;12.112;2022-08-07T08:49:06;4.50;;;2.28;;
5585;SDS011;2815;54.094;12.112;2022-08-07T08:51:38;3.58;;;2.05;;
5585;SDS011;2815;54.094;12.112;2022-08-07T08:54:31;3.90;;;2.08;;
5585;SDS011;2815;54.094;12.112;2022-08-07T08:57:00;6.70;;;2.72;;
5585;SDS011;2815;54.094;12.112;2022-08-07T08:59:33;4.00;;;2.50;;
5585;SDS011;2815;54.094;12.112;2022-08-07T09:02:16;4.25;;;2.03;;
5585;SDS011;2815;54.094;12.112;2022-08-07T09:05:06;3.40;;;2.28;;
5585;SDS011;2815;54.094;12.112;2022-08-07T09:07:44;3.40;;;1.92;;
5585;SDS011;2815;54.094;12.112;2022-08-07T09:10:24;3.42;;;2.15;;
5585;SDS011;2815;54.094;12.112;2022-08-07T09:12:55;3.30;;;2.10;;
5585;SDS011;2815;54.094;12.112;2022-08-07T09:15:35;4.78;;;2.17;;
5585;SDS011;2815;54.094;12.112;2022-08-07T09:18:29;6.63;;;2.03;;
5585;SDS011;2815;54.094;12.112;2022-08-07T09:21:11;2.70;;;1.80;;
5585;SDS011;2815;54.094;12.112;2022-08-07T09:24:09;3.53;;;2.20;;
5585;SDS011;2815;54.094;12.112;2022-08-07T09:27:08;3.53;;;2.00;;
5585;SDS011;2815;54.094;12.112;2022-08-07T09:29:52;3.10;;;2.10;;
5585;SDS011;2815;54.094;12.112;2022-08-07T09:32:41;4.70;;;2.05;;
5585;SDS011;2815;54.094;12.112;2022-08-07T09:35:13;4.10;;;2.17;;
5585;SDS011;2815;54.094;12.112;2022-08-07T09:38:10;5.20;;;1.70;;
5585;SDS011;2815;54.094;12.112;2022-08-07T09:40:50;4.72;;;1.90;;
5585;SDS011;2815;54.094;12.112;2022-08-07T09:43:29;4.22;;;1.85;;
5585;SDS011;2815;54.094;12.112;2022-08-07T09:46:30;4.80;;;1.85;;
5585;SDS011;2815;54.094;12.112;2022-08-07T09:49:34;2.05;;;1.77;;
5585;SDS011;2815;54.094;12.112;2022-08-07T09:52:30;6.15;;;2.10;;
5585;SDS011;2815;54.094;12.112;2022-08-07T09:55:09;2.58;;;1.63;;
5585;SDS011;2815;54.094;12.112;2022-08-07T09:58:13;3.33;;;1.92;;
5585;SDS011;2815;54.094;12.112;2022-08-07T10:01:11;3.88;;;1.98;;
5585;SDS011;2815;54.094;12.112;2022-08-07T10:04:13;3.72;;;1.73;;
5585;SDS011;2815;54.094;12.112;2022-08-07T10:07:04;3.42;;;2.03;;
5585;SDS011;2815;54.094;12.112;2022-08-07T10:09:56;2.60;;;1.80;;
5585;SDS011;2815;54.094;12.112;2022-08-07T10:12:37;5.63;;;2.10;;
5585;SDS011;2815;54.094;12.112;2022-08-07T10:18:23;2.85;;;1.67;;
5585;SDS011;2815;54.094;12.112;2022-08-07T10:21:09;2.70;;;1.52;;
5585;SDS011;2815;54.094;12.112;2022-08-07T10:24:12;2.95;;;1.40;;
5585;SDS011;2815;54.094;12.112;2022-08-07T10:27:09;2.90;;;1.83;;
5585;SDS011;2815;54.094;12.112;2022-08-07T10:32:43;2.85;;;1.52;;
5585;SDS011;2815;54.094;12.112;2022-08-07T10:38:18;2.90;;;1.40;;
5585;SDS011;2815;54.094;12.112;2022-08-07T10:41:13;2.83;;;1.38;;
5585;SDS011;2815;54.094;12.112;2022-08-07T10:44:05;2.42;;;1.40;;
5585;SDS011;2815;54.094;12.112;2022-08-07T10:46:46;5.13;;;1.58;;
5585;SDS011;2815;54.094;12.112;2022-08-07T10:49:20;4.53;;;1.70;;
5585;SDS011;2815;54.094;12.112;2022-08-07T10:52:11;3.33;;;1.50;;
5585;SDS011;2815;54.094;12.112;2022-08-07T10:54:42;3.95;;;1.42;;
5585;SDS011;2815;54.094;12.112;2022-08-07T10:57:31;2.15;;;1.20;;
5585;SDS011;2815;54.094;12.112;2022-08-07T11:00:04;3.50;;;1.42;;
5585;SDS011;2815;54.094;12.112;2022-08-07T11:02:57;3.25;;;1.10;;
5585;SDS011;2815;54.094;12.112;2022-08-07T11:05:40;2.35;;;1.00;;
5585;SDS011;2815;54.094;12.112;2022-08-07T11:08:18;4.68;;;1.20;;
5585;SDS011;2815;54.094;12.112;2022-08-07T11:10:58;2.85;;;1.40;;
5585;SDS011;2815;54.094;12.112;2022-08-07T11:13:30;1.50;;;1.20;;
5585;SDS011;2815;54.094;12.112;2022-08-07T11:16:21;3.47;;;1.42;;
5585;SDS011;2815;54.094;12.112;2022-08-07T11:19:00;3.45;;;1.33;;
5585;SDS011;2815;54.094;12.112;2022-08-07T11:21:34;5.70;;;1.67;;
5585;SDS011;2815;54.094;12.112;2022-08-07T11:24:11;3.17;;;1.40;;
5585;SDS011;2815;54.094;12.112;2022-08-07T11:26:46;1.52;;;1.20;;
5585;SDS011;2815;54.094;12.112;2022-08-07T11:29:18;3.13;;;1.35;;
5585;SDS011;2815;54.094;12.112;2022-08-07T11:32:10;1.85;;;1.02;;
5585;SDS011;2815;54.094;12.112;2022-08-07T11:34:54;3.05;;;1.70;;
5585;SDS011;2815;54.094;12.112;2022-08-07T11:37:29;2.38;;;1.58;;
5585;SDS011;2815;54.094;12.112;2022-08-07T11:40:27;3.53;;;1.35;;
5585;SDS011;2815;54.094;12.112;2022-08-07T11:43:03;4.68;;;1.42;;
5585;SDS011;2815;54.094;12.112;2022-08-07T11:45:35;2.38;;;1.38;;
5585;SDS011;2815;54.094;12.112;2022-08-07T11:48:29;3.83;;;1.50;;
5585;SDS011;2815;54.094;12.112;2022-08-07T11:51:33;4.70;;;1.48;;
5585;SDS011;2815;54.094;12.112;2022-08-07T11:54:17;6.20;;;1.60;;
5585;SDS011;2815;54.094;12.112;2022-08-07T11:56:55;2.72;;;1.60;;
5585;SDS011;2815;54.094;12.112;2022-08-07T11:59:36;2.35;;;1.50;;
5585;SDS011;2815;54.094;12.112;2022-08-07T12:02:40;2.97;;;1.75;;
5585;SDS011;2815;54.094;12.112;2022-08-07T12:05:19;6.15;;;1.83;;
5585;SDS011;2815;54.094;12.112;2022-08-07T12:08:15;2.00;;;1.38;;
5585;SDS011;2815;54.094;12.112;2022-08-07T12:11:02;4.47;;;1.85;;
5585;SDS011;2815;54.094;12.112;2022-08-07T12:13:49;4.28;;;1.80;;
5585;SDS011;2815;54.094;12.112;2022-08-07T12:16:21;2.90;;;1.88;;
5585;SDS011;2815;54.094;12.112;2022-08-07T12:18:59;3.72;;;1.70;;
5585;SDS011;2815;54.094;12.112;2022-08-07T12:21:34;2.85;;;1.52;;
5585;SDS011;2815;54.094;12.112;2022-08-07T12:24:29;4.35;;;1.88;;
5585;SDS011;2815;54.094;12.112;2022-08-07T12:27:07;2.70;;;1.50;;
5585;SDS011;2815;54.094;12.112;2022-08-07T12:29:45;3.25;;;1.70;;
5585;SDS011;2815;54.094;12.112;2022-08-07T12:32:18;2.05;;;1.48;;
5585;SDS011;2815;54.094;12.112;2022-08-07T12:34:48;7.13;;;1.73;;
5585;SDS011;2815;54.094;12.112;2022-08-07T12:37:21;3.10;;;1.38;;
5585;SDS011;2815;54.094;12.112;2022-08-07T12:40:12;2.05;;;1.40;;
5585;SDS011;2815;54.094;12.112;2022-08-07T12:43:05;2.40;;;1.63;;
5585;SDS011;2815;54.094;12.112;2022-08-07T12:45:36;3.63;;;1.55;;
5585;SDS011;2815;54.094;12.112;2022-08-07T12:48:10;6.35;;;1.70;;
5585;SDS011;2815;54.094;12.112;2022-08-07T12:51:02;2.60;;;1.50;;
5585;SDS011;2815;54.094;12.112;2022-08-07T12:53:44;2.30;;;1.48;;
5585;SDS011;2815;54.094;12.112;2022-08-07T12:56:40;5.53;;;2.10;;
5585;SDS011;2815;54.094;12.112;2022-08-07T12:59:21;2.63;;;1.90;;
5585;SDS011;2815;54.094;12.112;2022-08-07T13:02:01;3.47;;;1.75;;
5585;SDS011;2815;54.094;12.112;2022-08-07T13:04:41;3.25;;;1.48;;
5585;SDS011;2815;54.094;12.112;2022-08-07T13:07:34;3.95;;;1.90;;
5585;SDS011;2815;54.094;12.112;2022-08-07T13:10:29;2.42;;;1.60;;
5585;SDS011;2815;54.094;12.112;2022-08-07T13:13:28;4.30;;;1.80;;
5585;SDS011;2815;54.094;12.112;2022-08-07T13:16:16;4.15;;;1.60;;
5585;SDS011;2815;54.094;12.112;2022-08-07T13:18:55;2.83;;;1.60;;
5585;SDS011;2815;54.094;12.112;2022-08-07T13:21:28;2.58;;;1.80;;
5585;SDS011;2815;54.094;12.112;2022-08-07T13:24:19;2.53;;;1.45;;
5585;SDS011;2815;54.094;12.112;2022-08-07T13:26:53;2.85;;;1.77;;
5585;SDS011;2815;54.094;12.112;2022-08-07T13:29:32;2.85;;;1.80;;
5585;SDS011;2815;54.094;12.112;2022-08-07T13:32:09;3.67;;;1.80;;
5585;SDS011;2815;54.094;12.112;2022-08-07T13:35:00;3.92;;;1.85;;
5585;SDS011;2815;54.094;12.112;2022-08-07T13:37:36;5.45;;;2.10;;
5585;SDS011;2815;54.094;12.112;2022-08-07T13:40:26;3.10;;;2.08;;
5585;SDS011;2815;54.094;12.112;2022-08-07T13:43:09;6.07;;;2.22;;
5585;SDS011;2815;54.094;12.112;2022-08-07T13:45:42;5.15;;;2.20;;
5585;SDS011;2815;54.094;12.112;2022-08-07T13:48:31;4.43;;;1.80;;
5585;SDS011;2815;54.094;12.112;2022-08-07T13:53:53;3.47;;;2.15;;
5585;SDS011;2815;54.094;12.112;2022-08-07T13:56:29;5.45;;;2.45;;
5585;SDS011;2815;54.094;12.112;2022-08-07T13:59:07;2.72;;;1.65;;
5585;SDS011;2815;54.094;12.112;2022-08-07T14:01:44;3.13;;;1.80;;
5585;SDS011;2815;54.094;12.112;2022-08-07T14:04:24;5.25;;;1.60;;
5585;SDS011;2815;54.094;12.112;2022-08-07T14:07:02;2.58;;;1.70;;
5585;SDS011;2815;54.094;12.112;2022-08-07T14:09:35;2.95;;;1.65;;
5585;SDS011;2815;54.094;12.112;2022-08-07T14:12:36;4.32;;;2.22;;
5585;SDS011;2815;54.094;12.112;2022-08-07T14:15:25;3.90;;;1.95;;
5585;SDS011;2815;54.094;12.112;2022-08-07T14:18:03;2.60;;;1.70;;
5585;SDS011;2815;54.094;12.112;2022-08-07T14:20:55;3.17;;;1.67;;
5585;SDS011;2815;54.094;12.112;2022-08-07T14:23:37;2.85;;;2.00;;
5585;SDS011;2815;54.094;12.112;2022-08-07T14:26:28;2.15;;;1.90;;
5585;SDS011;2815;54.094;12.112;2022-08-07T14:29:02;5.47;;;2.10;;
5585;SDS011;2815;54.094;12.112;2022-08-07T14:31:51;3.22;;;2.00;;
5585;SDS011;2815;54.094;12.112;2022-08-07T14:34:25;3.40;;;1.98;;
5585;SDS011;2815;54.094;12.112;2022-08-07T14:36:56;2.15;;;1.73;;
5585;SDS011;2815;54.094;12.112;2022-08-07T14:39:30;3.45;;;1.98;;
5585;SDS011;2815;54.094;12.112;2022-08-07T14:42:22;4.03;;;1.75;;
5585;SDS011;2815;54.094;12.112;2022-08-07T14:44:58;2.35;;;1.80;;
5585;SDS011;2815;54.094;12.112;2022-08-07T14:47:49;4.78;;;2.53;;
5585;SDS011;2815;54.094;12.112;2022-08-07T14:50:25;3.40;;;2.28;;
5585;SDS011;2815;54.094;12.112;2022-08-07T14:53:03;7.50;;;2.13;;
5585;SDS011;2815;54.094;12.112;2022-08-07T14:55:35;4.53;;;1.75;;
5585;SDS011;2815;54.094;12.112;2022-08-07T14:58:26;3.05;;;2.05;;
5585;SDS011;2815;54.094;12.112;2022-08-07T15:00:58;3.47;;;2.20;;
5585;SDS011;2815;54.094;12.112;2022-08-07T15:03:46;2.28;;;1.90;;
5585;SDS011;2815;54.094;12.112;2022-08-07T15:06:22;2.50;;;1.90;;
5585;SDS011;2815;54.094;12.112;2022-08-07T15:08:51;4.55;;;1.85;;
5585;SDS011;2815;54.094;12.112;2022-08-07T15:11:22;4.88;;;1.80;;
5585;SDS011;2815;54.094;12.112;2022-08-07T15:14:14;3.63;;;2.00;;
5585;SDS011;2815;54.094;12.112;2022-08-07T15:16:45;3.83;;;1.85;;
5585;SDS011;2815;54.094;12.112;2022-08-07T15:19:21;3.88;;;1.70;;
5585;SDS011;2815;54.094;12.112;2022-08-07T15:22:12;3.60;;;1.98;;
5585;SDS011;2815;54.094;12.112;2022-08-07T15:24:54;3.13;;;2.25;;
5585;SDS011;2815;54.094;12.112;2022-08-07T15:27:44;4.80;;;1.73;;
5585;SDS011;2815;54.094;12.112;2022-08-07T15:30:34;2.67;;;1.58;;
5585;SDS011;2815;54.094;12.112;2022-08-07T15:33:23;3.13;;;2.15;;
5585;SDS011;2815;54.094;12.112;2022-08-07T15:36:11;3.17;;;2.17;;
5585;SDS011;2815;54.094;12.112;2022-08-07T15:39:02;3.65;;;2.22;;
5585;SDS011;2815;54.094;12.112;2022-08-07T15:41:36;4.72;;;2.67;;
5585;SDS011;2815;54.094;12.112;2022-08-07T15:44:26;3.47;;;2.20;;
5585;SDS011;2815;54.094;12.112;2022-08-07T15:46:56;3.78;;;1.88;;
5585;SDS011;2815;54.094;12.112;2022-08-07T15:49:34;3.88;;;2.42;;
5585;SDS011;2815;54.094;12.112;2022-08-07T15:52:24;2.75;;;2.05;;
5585;SDS011;2815;54.094;12.112;2022-08-07T15:54:58;3.40;;;1.80;;
5585;SDS011;2815;54.094;12.112;2022-08-07T15:57:34;4.60;;;2.53;;
5585;SDS011;2815;54.094;12.112;2022-08-07T16:00:15;4.15;;;2.80;;
5585;SDS011;2815;54.094;12.112;2022-08-07T16:03:00;4.72;;;2.58;;
5585;SDS011;2815;54.094;12.112;2022-08-07T16:05:30;3.60;;;2.40;;
5585;SDS011;2815;54.094;12.112;2022-08-07T16:08:02;3.78;;;2.13;;
5585;SDS011;2815;54.094;12.112;2022-08-07T16:10:54;3.63;;;2.55;;
5585;SDS011;2815;54.094;12.112;2022-08-07T16:13:44;3.15;;;2.15;;
5585;SDS011;2815;54.094;12.112;2022-08-07T16:16:31;4.10;;;2.13;;
5585;SDS011;2815;54.094;12.112;2022-08-07T16:19:31;4.25;;;1.65;;
5585;SDS011;2815;54.094;12.112;2022-08-07T16:22:10;4.47;;;2.38;;
5585;SDS011;2815;54.094;12.112;2022-08-07T16:25:05;2.72;;;2.03;;
5585;SDS011;2815;54.094;12.112;2022-08-07T16:27:50;5.65;;;2.40;;
5585;SDS011;2815;54.094;12.112;2022-08-07T16:30:25;4.38;;;2.03;;
5585;SDS011;2815;54.094;12.112;2022-08-07T16:32:59;3.22;;;2.20;;
5585;SDS011;2815;54.094;12.112;2022-08-07T16:35:59;3.08;;;2.22;;
5585;SDS011;2815;54.094;12.112;2022-08-07T16:38:50;5.80;;;2.20;;
5585;SDS011;2815;54.094;12.112;2022-08-07T16:51:02;4.43;;;2.33;;